createdAt,value
2019-03-05T00:00:12.749Z,43.18
2019-03-05T00:01:12.666Z,43.2
2019-03-05T00:02:12.853Z,43.21
2019-03-05T00:03:12.959Z,43.2
2019-03-05T00:04:12.790Z,43.22
2019-03-05T00:05:12.728Z,43.22
2019-03-05T00:06:12.798Z,43.23
2019-03-05T00:07:12.899Z,43.26
2019-03-05T00:08:12.788Z,43.26
2019-03-05T00:09:12.580Z,43.29
2019-03-05T00:10:12.770Z,43.25
2019-03-05T00:11:12.757Z,43.28
2019-03-05T00:12:12.612Z,43.26
2019-03-05T00:13:12.729Z,43.25
2019-03-05T00:14:12.934Z,43.26
2019-03-05T00:15:12.541Z,43.24
2019-03-05T00:16:12.723Z,43.28
2019-03-05T00:17:12.752Z,43.29
2019-03-05T00:18:12.705Z,43.34
2019-03-05T00:19:12.742Z,43.3
2019-03-05T00:20:12.902Z,43.25
2019-03-05T00:21:13.082Z,43.31
2019-03-05T00:22:13.184Z,43.31
2019-03-05T00:23:12.885Z,43.27
2019-03-05T00:24:12.719Z,43.25
2019-03-05T00:25:12.791Z,43.29
2019-03-05T00:26:12.755Z,43.31
2019-03-05T00:27:12.619Z,43.28
2019-03-05T00:28:12.730Z,43.29
2019-03-05T00:29:12.766Z,43.32
2019-03-05T00:30:12.633Z,43.29
2019-03-05T00:31:12.733Z,43.3
2019-03-05T00:32:12.905Z,43.26
2019-03-05T00:33:12.638Z,43.24
2019-03-05T00:34:12.714Z,43.32
2019-03-05T00:35:12.773Z,43.33
2019-03-05T00:36:12.689Z,43.3
2019-03-05T00:37:12.835Z,43.29
2019-03-05T00:38:12.872Z,43.3
2019-03-05T00:39:12.678Z,43.29
2019-03-05T00:40:12.815Z,43.17
2019-03-05T00:41:12.953Z,43.32
2019-03-05T00:42:12.719Z,43.34
2019-03-05T00:43:13.014Z,43.27
2019-03-05T00:44:12.616Z,43.35
2019-03-05T00:45:12.703Z,43.29
2019-03-05T00:46:12.892Z,43.3
2019-03-05T00:47:12.630Z,43.28
2019-03-05T00:48:12.703Z,43.27
2019-03-05T00:49:12.768Z,43.3
2019-03-05T00:50:12.672Z,43.3
2019-03-05T00:51:25.517Z,43.32
2019-03-05T00:52:12.831Z,43.29
2019-03-05T00:53:12.641Z,43.29
2019-03-05T00:54:12.688Z,43.22
2019-03-05T00:55:12.746Z,43.31
2019-03-05T00:56:12.633Z,43.26
2019-03-05T00:57:12.716Z,43.31
2019-03-05T00:58:12.842Z,43.3
2019-03-05T00:59:12.638Z,43.24
2019-03-05T01:00:12.683Z,43.23
2019-03-05T01:01:12.827Z,43.24
2019-03-05T01:02:12.633Z,43.25
2019-03-05T01:03:12.792Z,43.23
2019-03-05T01:04:13.225Z,43.27
2019-03-05T01:05:12.712Z,43.23
2019-03-05T01:06:12.672Z,43.27
2019-03-05T01:07:12.864Z,43.25
2019-03-05T01:08:12.688Z,43.27
2019-03-05T01:09:12.723Z,43.25
2019-03-05T01:10:12.863Z,43.28
2019-03-05T01:11:12.946Z,43.31
2019-03-05T01:12:12.681Z,43.33
2019-03-05T01:13:12.885Z,43.29
2019-03-05T01:14:12.663Z,43.28
2019-03-05T01:15:12.726Z,43.28
2019-03-05T01:16:12.910Z,43.27
2019-03-05T01:17:12.629Z,43.29
2019-03-05T01:18:12.723Z,43.25
2019-03-05T01:19:12.867Z,43.29
2019-03-05T01:20:12.679Z,43.28
2019-03-05T01:21:12.741Z,43.32
2019-03-05T01:22:12.602Z,43.24
2019-03-05T01:23:12.737Z,43.31
2019-03-05T01:24:13.117Z,43.31
2019-03-05T01:25:12.590Z,43.25
2019-03-05T01:26:13.032Z,43.25
2019-03-05T01:27:12.873Z,43.32
2019-03-05T01:28:12.648Z,43.3
2019-03-05T01:29:12.793Z,43.29
2019-03-05T01:30:12.870Z,43.27
2019-03-05T01:31:12.702Z,43.28
2019-03-05T01:32:12.796Z,43.28
2019-03-05T01:33:12.757Z,43.29
2019-03-05T01:34:12.621Z,43.27
2019-03-05T01:35:12.781Z,43.25
2019-03-05T01:36:12.773Z,43.22
2019-03-05T01:37:12.632Z,43.3
2019-03-05T01:38:12.733Z,43.27
2019-03-05T01:39:12.779Z,43.27
2019-03-05T01:40:12.747Z,43.24
2019-03-05T01:41:12.695Z,43.25
2019-03-05T01:42:12.866Z,43.18
2019-03-05T01:43:12.592Z,43.24
2019-03-05T01:44:12.739Z,43.25
2019-03-05T01:45:12.946Z,43.27
2019-03-05T01:46:12.633Z,43.31
2019-03-05T01:47:12.912Z,43.27
2019-03-05T01:48:12.627Z,43.31
2019-03-05T01:49:12.656Z,43.29
2019-03-05T01:50:12.810Z,43.31
2019-03-05T01:51:12.681Z,43.33
2019-03-05T01:52:12.653Z,43.25
2019-03-05T01:53:12.814Z,43.33
2019-03-05T01:54:12.703Z,43.28
2019-03-05T01:55:12.743Z,43.23
2019-03-05T01:56:12.851Z,43.29
2019-03-05T01:57:12.652Z,43.27
2019-03-05T01:58:12.652Z,43.21
2019-03-05T01:59:12.694Z,43.28
2019-03-05T02:00:12.725Z,43.3
2019-03-05T02:01:12.632Z,43.28
2019-03-05T02:02:12.838Z,43.28
2019-03-05T02:03:12.644Z,43.25
2019-03-05T02:04:12.659Z,43.29
2019-03-05T02:05:12.762Z,43.26
2019-03-05T02:06:12.662Z,43.28
2019-03-05T02:07:12.643Z,43.26
2019-03-05T02:08:12.810Z,43.25
2019-03-05T02:09:13.035Z,43.25
2019-03-05T02:10:12.753Z,43.27
2019-03-05T02:11:12.814Z,43.22
2019-03-05T02:12:12.624Z,43.29
2019-03-05T02:13:12.658Z,43.29
2019-03-05T02:14:12.889Z,43.27
2019-03-05T02:15:12.705Z,43.27
2019-03-05T02:16:12.752Z,43.25
2019-03-05T02:17:12.754Z,43.24
2019-03-05T02:18:12.721Z,43.25
2019-03-05T02:19:12.753Z,43.29
2019-03-05T02:20:12.596Z,43.23
2019-03-05T02:21:12.635Z,43.28
2019-03-05T02:22:12.724Z,43.24
2019-03-05T02:23:12.554Z,43.26
2019-03-05T02:24:12.714Z,43.29
2019-03-05T02:25:12.744Z,43.29
2019-03-05T02:26:12.573Z,43.26
2019-03-05T02:27:12.769Z,43.25
2019-03-05T02:28:12.746Z,43.29
2019-03-05T02:29:12.523Z,43.27
2019-03-05T02:30:12.664Z,43.3
2019-03-05T02:31:12.716Z,43.28
2019-03-05T02:32:12.599Z,43.26
2019-03-05T02:33:13.030Z,43.28
2019-03-05T02:34:12.828Z,43.28
2019-03-05T02:35:12.740Z,43.27
2019-03-05T02:36:12.717Z,43.34
2019-03-05T02:37:12.765Z,43.33
2019-03-05T02:38:12.708Z,43.33
2019-03-05T02:39:12.757Z,43.32
2019-03-05T02:40:12.750Z,43.33
2019-03-05T02:41:12.595Z,43.34
2019-03-05T02:42:12.768Z,43.29
2019-03-05T02:43:12.730Z,43.33
2019-03-05T02:44:12.660Z,43.28
2019-03-05T02:45:12.816Z,43.29
2019-03-05T02:46:12.816Z,43.28
2019-03-05T02:47:12.892Z,43.29
2019-03-05T02:48:12.757Z,43.23
2019-03-05T02:49:12.860Z,43.27
2019-03-05T02:50:12.663Z,43.27
2019-03-05T02:51:12.793Z,43.3
2019-03-05T02:52:12.753Z,43.28
2019-03-05T02:53:12.670Z,43.26
2019-03-05T02:54:12.769Z,43.22
2019-03-05T02:55:12.557Z,43.25
2019-03-05T02:56:12.701Z,43.24
2019-03-05T02:57:12.831Z,43.26
2019-03-05T02:58:12.581Z,43.28
2019-03-05T02:59:12.761Z,43.28
2019-03-05T03:00:12.848Z,43.27
2019-03-05T03:01:12.654Z,43.29
2019-03-05T03:02:12.692Z,43.3
2019-03-05T03:03:12.751Z,43.3
2019-03-05T03:04:12.693Z,43.29
2019-03-05T03:05:12.615Z,43.28
2019-03-05T03:06:12.804Z,43.38
2019-03-05T03:07:12.748Z,43.34
2019-03-05T03:08:12.685Z,43.29
2019-03-05T03:09:12.779Z,43.34
2019-03-05T03:10:12.658Z,43.36
2019-03-05T03:11:12.749Z,43.31
2019-03-05T03:12:13.053Z,43.34
2019-03-05T03:13:12.680Z,43.29
2019-03-05T03:14:12.696Z,43.3
2019-03-05T03:15:13.050Z,43.34
2019-03-05T03:16:12.664Z,43.29
2019-03-05T03:17:12.819Z,43.34
2019-03-05T03:18:12.907Z,43.27
2019-03-05T03:19:12.718Z,43.31
2019-03-05T03:20:12.763Z,43.34
2019-03-05T03:21:12.667Z,43.33
2019-03-05T03:22:12.768Z,43.35
2019-03-05T03:23:12.824Z,43.37
2019-03-05T03:24:12.598Z,43.33
2019-03-05T03:25:12.829Z,43.31
2019-03-05T03:26:12.765Z,43.34
2019-03-05T03:27:12.533Z,43.33
2019-03-05T03:28:12.740Z,43.35
2019-03-05T03:29:12.690Z,43.37
2019-03-05T03:30:12.697Z,43.34
2019-03-05T03:31:12.798Z,43.37
2019-03-05T03:32:12.970Z,43.34
2019-03-05T03:33:12.852Z,43.35
2019-03-05T03:34:12.819Z,43.33
2019-03-05T03:35:12.998Z,43.35
2019-03-05T03:36:12.577Z,43.34
2019-03-05T03:37:12.794Z,43.37
2019-03-05T03:38:12.604Z,43.34
2019-03-05T03:39:12.649Z,43.34
2019-03-05T03:40:12.855Z,43.32
2019-03-05T03:41:12.638Z,43.34
2019-03-05T03:42:12.790Z,43.34
2019-03-05T03:43:12.829Z,43.36
2019-03-05T03:44:12.587Z,43.33
2019-03-05T03:45:12.826Z,43.36
2019-03-05T03:46:12.796Z,43.4
2019-03-05T03:47:12.747Z,43.32
2019-03-05T03:48:12.676Z,43.33
2019-03-05T03:49:12.718Z,43.34
2019-03-05T03:50:12.650Z,43.34
2019-03-05T03:51:12.890Z,43.31
2019-03-05T03:52:12.486Z,43.29
2019-03-05T03:53:12.721Z,43.3
2019-03-05T03:54:13.031Z,43.33
2019-03-05T03:55:12.901Z,43.34
2019-03-05T03:56:12.640Z,43.3
2019-03-05T03:57:12.679Z,43.36
2019-03-05T03:58:12.802Z,43.38
2019-03-05T03:59:12.835Z,43.33
2019-03-05T04:00:12.740Z,43.35
2019-03-05T04:01:12.591Z,43.35
2019-03-05T04:02:12.696Z,43.3
2019-03-05T04:03:12.714Z,43.29
2019-03-05T04:04:12.578Z,43.32
2019-03-05T04:05:12.727Z,43.32
2019-03-05T04:06:12.786Z,43.37
2019-03-05T04:07:12.625Z,43.34
2019-03-05T04:08:12.981Z,43.32
2019-03-05T04:09:12.790Z,43.36
2019-03-05T04:10:12.701Z,43.33
2019-03-05T04:11:12.729Z,43.38
2019-03-05T04:12:12.591Z,43.37
2019-03-05T04:13:12.665Z,43.36
2019-03-05T04:14:12.756Z,43.34
2019-03-05T04:15:12.953Z,43.34
2019-03-05T04:16:13.049Z,43.36
2019-03-05T04:17:12.801Z,43.36
2019-03-05T04:18:12.846Z,43.34
2019-03-05T04:19:12.913Z,43.38
2019-03-05T04:20:12.550Z,43.34
2019-03-05T04:21:12.648Z,43.32
2019-03-05T04:22:12.679Z,43.38
2019-03-05T04:23:12.582Z,43.34
2019-03-05T04:24:12.738Z,43.36
2019-03-05T04:25:12.643Z,43.38
2019-03-05T04:26:12.569Z,43.36
2019-03-05T04:27:12.662Z,43.31
2019-03-05T04:28:12.871Z,43.37
2019-03-05T04:29:12.655Z,43.38
2019-03-05T04:30:12.733Z,43.34
2019-03-05T04:31:12.680Z,43.33
2019-03-05T04:32:12.566Z,43.41
2019-03-05T04:33:12.738Z,43.39
2019-03-05T04:34:12.751Z,43.36
2019-03-05T04:35:12.512Z,43.38
2019-03-05T04:36:12.746Z,43.39
2019-03-05T04:37:13.264Z,43.38
2019-03-05T04:38:12.636Z,43.39
2019-03-05T04:39:12.692Z,43.35
2019-03-05T04:40:12.571Z,43.36
2019-03-05T04:41:12.888Z,43.35
2019-03-05T04:42:12.809Z,43.36
2019-03-05T04:43:12.655Z,43.4
2019-03-05T04:44:12.653Z,43.36
2019-03-05T04:45:12.739Z,43.38
2019-03-05T04:46:12.736Z,43.35
2019-03-05T04:47:12.600Z,43.32
2019-03-05T04:48:12.798Z,43.33
2019-03-05T04:49:12.606Z,43.35
2019-03-05T04:50:12.640Z,43.36
2019-03-05T04:51:12.562Z,43.31
2019-03-05T04:52:12.589Z,43.35
2019-03-05T04:53:12.683Z,43.37
2019-03-05T04:54:12.505Z,43.34
2019-03-05T04:55:12.639Z,43.32
2019-03-05T04:56:12.662Z,43.34
2019-03-05T04:57:12.651Z,43.38
2019-03-05T04:58:12.671Z,43.35
2019-03-05T04:59:12.702Z,43.38
2019-03-05T05:00:12.541Z,43.42
2019-03-05T05:01:12.654Z,43.36
2019-03-05T05:02:12.733Z,43.34
2019-03-05T05:03:12.499Z,43.33
2019-03-05T05:04:12.614Z,43.39
2019-03-05T05:05:12.749Z,43.38
2019-03-05T05:06:12.582Z,43.37
2019-03-05T05:07:12.687Z,43.4
2019-03-05T05:08:12.594Z,43.39
2019-03-05T05:09:12.577Z,43.4
2019-03-05T05:10:12.820Z,43.38
2019-03-05T05:11:12.524Z,43.39
2019-03-05T05:12:12.613Z,43.4
2019-03-05T05:13:12.727Z,43.37
2019-03-05T05:14:12.563Z,43.37
2019-03-05T05:15:12.658Z,43.39
2019-03-05T05:16:12.892Z,43.37
2019-03-05T05:17:12.587Z,43.35
2019-03-05T05:18:12.746Z,43.38
2019-03-05T05:19:12.729Z,43.36
2019-03-05T05:20:12.566Z,43.38
2019-03-05T05:21:12.630Z,43.36
2019-03-05T05:22:12.738Z,43.28
2019-03-05T05:23:12.748Z,43.35
2019-03-05T05:24:12.642Z,43.38
2019-03-05T05:25:12.429Z,43.4
2019-03-05T05:26:12.590Z,43.37
2019-03-05T05:27:12.659Z,43.37
2019-03-05T05:28:12.598Z,43.37
2019-03-05T05:29:12.687Z,43.38
2019-03-05T05:30:12.644Z,43.35
2019-03-05T05:31:12.505Z,43.35
2019-03-05T05:32:12.652Z,43.4
2019-03-05T05:33:12.690Z,43.38
2019-03-05T05:34:12.669Z,43.39
2019-03-05T05:35:12.677Z,43.38
2019-03-05T05:36:12.842Z,43.37
2019-03-05T05:37:12.529Z,43.4
2019-03-05T05:38:12.731Z,43.34
2019-03-05T05:39:12.722Z,43.39
2019-03-05T05:40:12.557Z,43.38
2019-03-05T05:41:12.672Z,43.36
2019-03-05T05:42:12.998Z,43.34
2019-03-05T05:43:12.603Z,43.35
2019-03-05T05:44:12.679Z,43.38
2019-03-05T05:45:12.548Z,43.4
2019-03-05T05:46:12.505Z,43.4
2019-03-05T05:47:12.738Z,43.35
2019-03-05T05:48:12.542Z,43.38
2019-03-05T05:49:12.682Z,43.39
2019-03-05T05:50:12.687Z,43.34
2019-03-05T05:51:12.630Z,43.38
2019-03-05T05:52:12.585Z,43.38
2019-03-05T05:53:12.722Z,43.38
2019-03-05T05:54:12.586Z,43.36
2019-03-05T05:55:12.605Z,43.34
2019-03-05T05:56:12.744Z,43.34
2019-03-05T05:57:12.557Z,43.34
2019-03-05T05:58:12.689Z,43.36
2019-03-05T05:59:12.748Z,43.39
2019-03-05T06:00:12.595Z,43.36
2019-03-05T06:01:12.630Z,43.35
2019-03-05T06:02:12.757Z,43.34
2019-03-05T06:03:12.597Z,43.34
2019-03-05T06:04:12.828Z,43.38
2019-03-05T06:05:12.810Z,43.37
2019-03-05T06:06:12.619Z,43.38
2019-03-05T06:07:12.659Z,43.34
2019-03-05T06:08:12.470Z,43.34
2019-03-05T06:09:12.732Z,43.36
2019-03-05T06:10:12.780Z,43.36
2019-03-05T06:11:12.698Z,43.36
2019-03-05T06:12:12.677Z,43.34
2019-03-05T06:13:12.709Z,43.36
2019-03-05T06:14:12.480Z,43.34
2019-03-05T06:15:12.652Z,43.38
2019-03-05T06:16:12.713Z,43.34
2019-03-05T06:17:12.542Z,43.33
2019-03-05T06:18:12.674Z,43.38
2019-03-05T06:19:12.622Z,43.47
2019-03-05T06:20:12.536Z,42.38
2019-03-05T06:21:12.713Z,42.08
2019-03-05T06:22:12.700Z,42.18
2019-03-05T06:23:12.560Z,41.98
2019-03-05T06:24:12.684Z,41.74
2019-03-05T06:25:13.314Z,42.06
2019-03-05T06:26:12.578Z,41.96
2019-03-05T06:27:12.636Z,41.96
2019-03-05T06:28:12.584Z,41.9
2019-03-05T06:29:12.559Z,41.87
2019-03-05T06:30:12.680Z,41.83
2019-03-05T06:31:12.529Z,41.75
2019-03-05T06:32:12.564Z,41.8
2019-03-05T06:33:12.646Z,41.77
2019-03-05T06:34:12.450Z,41.98
2019-03-05T06:35:12.696Z,42.16
2019-03-05T06:36:12.642Z,42.37
2019-03-05T06:37:12.673Z,42.49
2019-03-05T06:38:12.662Z,42.58
2019-03-05T06:39:12.713Z,42.65
2019-03-05T06:40:12.477Z,42.64
2019-03-05T06:41:12.558Z,42.72
2019-03-05T06:42:12.703Z,42.67
2019-03-05T06:43:12.466Z,42.73
2019-03-05T06:44:12.532Z,42.77
2019-03-05T06:45:12.732Z,42.71
2019-03-05T06:46:12.540Z,42.77
2019-03-05T06:47:12.557Z,42.8
2019-03-05T06:48:12.721Z,42.81
2019-03-05T06:49:12.686Z,42.76
2019-03-05T06:50:12.482Z,42.67
2019-03-05T06:51:12.653Z,42.71
2019-03-05T06:52:12.654Z,42.7
2019-03-05T06:53:12.539Z,42.69
2019-03-05T06:54:12.643Z,42.7
2019-03-05T06:55:12.422Z,42.63
2019-03-05T06:56:12.809Z,42.62
2019-03-05T06:57:12.685Z,42.67
2019-03-05T06:58:12.728Z,42.61
2019-03-05T06:59:12.624Z,42.67
2019-03-05T07:00:12.658Z,42.64
2019-03-05T07:01:12.568Z,42.64
2019-03-05T07:02:12.485Z,42.62
2019-03-05T07:03:12.676Z,42.61
2019-03-05T07:04:12.654Z,42.61
2019-03-05T07:05:12.566Z,42.56
2019-03-05T07:06:12.704Z,42.53
2019-03-05T07:07:12.518Z,42.51
2019-03-05T07:08:12.547Z,42.57
2019-03-05T07:09:13.009Z,42.56
2019-03-05T07:10:12.549Z,42.57
2019-03-05T07:11:12.553Z,42.59
2019-03-05T07:12:12.750Z,42.53
2019-03-05T07:13:12.571Z,42.49
2019-03-05T07:14:12.564Z,42.65
2019-03-05T07:15:12.880Z,42.57
2019-03-05T07:16:12.561Z,42.6
2019-03-05T07:17:12.536Z,42.58
2019-03-05T07:18:12.471Z,42.61
2019-03-05T07:19:12.548Z,42.57
2019-03-05T07:20:12.589Z,42.64
2019-03-05T07:21:12.690Z,42.54
2019-03-05T07:22:12.570Z,42.55
2019-03-05T07:23:12.548Z,42.66
2019-03-05T07:24:12.680Z,42.56
2019-03-05T07:25:12.700Z,42.62
2019-03-05T07:26:12.545Z,42.56
2019-03-05T07:27:12.804Z,42.58
2019-03-05T07:28:12.521Z,42.6
2019-03-05T07:29:13.079Z,42.6
2019-03-05T07:30:12.362Z,42.64
2019-03-05T07:31:12.535Z,42.67
2019-03-05T07:32:12.573Z,42.59
2019-03-05T07:33:12.494Z,42.61
2019-03-05T07:34:12.598Z,42.61
2019-03-05T07:35:12.568Z,42.85
2019-03-05T07:36:12.471Z,43.29
2019-03-05T07:37:12.573Z,43.34
2019-03-05T07:38:12.626Z,43.46
2019-03-05T07:39:12.586Z,43.52
2019-03-05T07:40:12.688Z,43.5
2019-03-05T07:41:12.730Z,43.05
2019-03-05T07:42:12.474Z,42.97
2019-03-05T07:43:12.664Z,42.99
2019-03-05T07:44:12.797Z,42.91
2019-03-05T07:45:12.469Z,42.92
2019-03-05T07:46:12.643Z,42.81
2019-03-05T07:47:12.637Z,42.8
2019-03-05T07:48:12.484Z,42.77
2019-03-05T07:49:12.596Z,42.76
2019-03-05T07:50:12.671Z,42.84
2019-03-05T07:51:12.487Z,42.83
2019-03-05T07:52:12.588Z,42.84
2019-03-05T07:53:12.651Z,42.87
2019-03-05T07:54:12.545Z,42.75
2019-03-05T07:55:14.515Z,42.84
2019-03-05T07:56:12.627Z,42.88
2019-03-05T07:57:12.482Z,43.03
2019-03-05T07:58:12.619Z,43.03
2019-03-05T07:59:12.617Z,42.95
2019-03-05T08:00:12.452Z,42.96
2019-03-05T08:01:22.987Z,42.93
2019-03-05T08:02:12.723Z,42.92
2019-03-05T08:03:12.607Z,42.91
2019-03-05T08:04:12.634Z,42.86
2019-03-05T08:05:12.654Z,42.88
2019-03-05T08:06:12.458Z,42.91
2019-03-05T08:07:12.606Z,42.85
2019-03-05T08:08:12.674Z,42.86
2019-03-05T08:09:12.470Z,42.83
2019-03-05T08:10:12.709Z,42.84
2019-03-05T08:11:12.653Z,42.81
2019-03-05T08:12:12.614Z,42.8
2019-03-05T08:13:12.788Z,42.87
2019-03-05T08:14:12.467Z,42.84
2019-03-05T08:15:12.512Z,42.85
2019-03-05T08:16:12.648Z,42.8
2019-03-05T08:17:12.519Z,42.81
2019-03-05T08:18:12.525Z,42.84
2019-03-05T08:19:12.605Z,42.82
2019-03-05T08:20:12.466Z,42.81
2019-03-05T08:21:12.516Z,42.84
2019-03-05T08:22:12.908Z,42.78
2019-03-05T08:23:12.461Z,42.79
2019-03-05T08:24:12.493Z,42.78
2019-03-05T08:25:12.641Z,42.78
2019-03-05T08:26:12.450Z,42.78
2019-03-05T08:27:12.521Z,42.76
2019-03-05T08:28:12.691Z,42.79
2019-03-05T08:29:12.469Z,42.78
2019-03-05T08:30:15.450Z,42.79
2019-03-05T08:31:12.745Z,42.75
2019-03-05T08:32:12.427Z,42.78
2019-03-05T08:33:12.512Z,42.73
2019-03-05T08:34:12.835Z,42.67
2019-03-05T08:35:12.839Z,42.7
2019-03-05T08:36:12.526Z,42.71
2019-03-05T08:37:13.875Z,42.71
2019-03-05T08:38:12.457Z,42.71
2019-03-05T08:39:12.545Z,42.73
2019-03-05T08:40:12.685Z,42.66
2019-03-05T08:41:12.453Z,42.64
2019-03-05T08:42:12.524Z,42.69
2019-03-05T08:43:12.601Z,42.63
2019-03-05T08:44:12.530Z,42.66
2019-03-05T08:45:12.548Z,42.35
2019-03-05T08:46:12.747Z,42.51
2019-03-05T08:47:12.538Z,42.55
2019-03-05T08:48:12.537Z,42.5
2019-03-05T08:49:12.678Z,42.59
2019-03-05T08:50:12.502Z,42.53
2019-03-05T08:51:12.523Z,42.05
2019-03-05T08:52:12.681Z,42.24
2019-03-05T08:53:12.589Z,42.29
2019-03-05T08:54:12.587Z,42.51
2019-03-05T08:55:12.759Z,42.73
2019-03-05T08:56:12.700Z,42.69
2019-03-05T08:57:12.539Z,43.64
2019-03-05T08:58:12.681Z,43.26
2019-03-05T08:59:12.538Z,43.13
2019-03-05T09:00:12.554Z,43.24
2019-03-05T09:01:12.649Z,43.28
2019-03-05T09:02:12.595Z,43.22
2019-03-05T09:03:12.564Z,43.7
2019-03-05T09:04:12.643Z,42.39
2019-03-05T09:05:12.500Z,41.79
2019-03-05T09:06:12.839Z,42.11
2019-03-05T09:07:12.710Z,42.99
2019-03-05T09:08:12.417Z,41.84
2019-03-05T09:09:12.517Z,40.81
2019-03-05T09:10:12.617Z,41.39
2019-03-05T09:11:12.481Z,41.15
2019-03-05T09:12:12.514Z,41.15
2019-03-05T09:13:12.635Z,41.21
2019-03-05T09:14:12.448Z,41.26
2019-03-05T09:15:12.527Z,41.5
2019-03-05T09:16:12.819Z,41.46
2019-03-05T09:17:12.419Z,41.67
2019-03-05T09:18:13.445Z,41.7
2019-03-05T09:19:12.386Z,41.67
2019-03-05T09:20:12.477Z,42.48
2019-03-05T09:21:12.539Z,42.5
2019-03-05T09:22:12.713Z,42.15
2019-03-05T09:23:12.550Z,42.34
2019-03-05T09:24:12.553Z,42.67
2019-03-05T09:25:12.381Z,42.65
2019-03-05T09:26:12.506Z,42.34
2019-03-05T09:27:12.568Z,42.05
2019-03-05T09:28:12.343Z,41.87
2019-03-05T09:29:12.581Z,42.15
2019-03-05T09:30:12.628Z,41.91
2019-03-05T09:31:12.467Z,41.8
2019-03-05T09:32:12.547Z,41.72
2019-03-05T09:33:12.626Z,40.47
2019-03-05T09:34:12.395Z,40.9
2019-03-05T09:35:12.538Z,41.13
2019-03-05T09:36:12.580Z,41.34
2019-03-05T09:37:12.454Z,41.86
2019-03-05T09:38:12.807Z,41.84
2019-03-05T09:39:12.706Z,41.86
2019-03-05T09:40:12.878Z,41.91
2019-03-05T09:41:12.496Z,42.55
2019-03-05T09:42:12.636Z,42.71
2019-03-05T09:43:12.556Z,42.1
2019-03-05T09:44:12.547Z,42.48
2019-03-05T09:45:12.484Z,42.1
2019-03-05T09:46:12.562Z,41.82
2019-03-05T09:47:12.627Z,42.26
2019-03-05T09:48:12.486Z,42.3
2019-03-05T09:49:12.392Z,42.46
2019-03-05T09:50:12.586Z,42.4
2019-03-05T09:51:12.399Z,42.21
2019-03-05T09:52:12.560Z,42.54
2019-03-05T09:53:12.624Z,42.45
2019-03-05T09:54:12.507Z,42.42
2019-03-05T09:55:12.481Z,42.41
2019-03-05T09:56:12.603Z,42.16
2019-03-05T09:57:12.489Z,42.14
2019-03-05T09:58:12.465Z,42.17
2019-03-05T09:59:12.641Z,42.35
2019-03-05T10:00:12.520Z,42.2
2019-03-05T10:01:12.685Z,42.16
2019-03-05T10:02:12.633Z,42.16
2019-03-05T10:03:12.469Z,42.25
2019-03-05T10:04:12.487Z,42.31
2019-03-05T10:05:12.656Z,42.34
2019-03-05T10:06:12.491Z,42.26
2019-03-05T10:07:19.713Z,42.29
2019-03-05T10:08:12.630Z,42.35
2019-03-05T10:09:12.487Z,42.23
2019-03-05T10:10:12.555Z,42.32
2019-03-05T10:11:12.666Z,42.26
2019-03-05T10:12:12.492Z,41.93
2019-03-05T10:13:13.776Z,42.28
2019-03-05T10:14:12.601Z,42.14
2019-03-05T10:15:12.484Z,41.96
2019-03-05T10:16:12.467Z,41.88
2019-03-05T10:17:12.652Z,41.92
2019-03-05T10:18:13.599Z,41.79
2019-03-05T10:19:12.543Z,42.25
2019-03-05T10:20:12.617Z,42.08
2019-03-05T10:21:12.511Z,42.21
2019-03-05T10:22:12.781Z,42.17
2019-03-05T10:23:12.718Z,42.25
2019-03-05T10:24:12.887Z,42.14
2019-03-05T10:25:13.288Z,42.04
2019-03-05T10:26:12.514Z,42.03
2019-03-05T10:27:12.698Z,41.92
2019-03-05T10:28:12.409Z,42.08
2019-03-05T10:29:12.581Z,42.02
2019-03-05T10:30:12.694Z,42.09
2019-03-05T10:31:12.483Z,42.09
2019-03-05T10:32:12.553Z,42.07
2019-03-05T10:33:12.356Z,42.17
2019-03-05T10:34:12.398Z,42.31
2019-03-05T10:35:12.511Z,42.91
2019-03-05T10:36:12.621Z,42.1
2019-03-05T10:37:19.408Z,42.14
2019-03-05T10:38:12.646Z,42.11
2019-03-05T10:39:12.414Z,42.25
2019-03-05T10:40:12.402Z,42.32
2019-03-05T10:41:12.552Z,42.17
2019-03-05T10:42:12.623Z,42.2
2019-03-05T10:43:12.487Z,42.05
2019-03-05T10:44:12.491Z,41.99
2019-03-05T10:45:12.618Z,41.92
2019-03-05T10:46:12.402Z,41.94
2019-03-05T10:47:12.646Z,41.99
2019-03-05T10:48:12.600Z,42.01
2019-03-05T10:49:12.399Z,41.9
2019-03-05T10:50:16.049Z,41.77
2019-03-05T10:51:12.584Z,41.87
2019-03-05T10:52:12.328Z,42.65
2019-03-05T10:53:12.632Z,41.91
2019-03-05T10:54:12.537Z,41.95
2019-03-05T10:55:12.370Z,41.88
2019-03-05T10:56:12.525Z,41.87
2019-03-05T10:57:12.561Z,41.87
2019-03-05T10:58:12.506Z,41.87
2019-03-05T10:59:12.511Z,42.01
2019-03-05T11:00:12.567Z,41.83
2019-03-05T11:01:12.495Z,41.74
2019-03-05T11:02:12.565Z,41.91
2019-03-05T11:03:12.528Z,41.78
2019-03-05T11:04:12.459Z,41.83
2019-03-05T11:05:12.625Z,41.91
2019-03-05T11:06:12.438Z,41.84
2019-03-05T11:07:12.417Z,42.14
2019-03-05T11:08:12.595Z,42.16
2019-03-05T11:09:12.637Z,42.07
2019-03-05T11:10:12.414Z,42.17
2019-03-05T11:11:14.522Z,42.13
2019-03-05T11:12:12.461Z,42.17
2019-03-05T11:13:12.484Z,42.1
2019-03-05T11:14:12.759Z,42.2
2019-03-05T11:15:12.399Z,42.16
2019-03-05T11:16:12.482Z,42.03
2019-03-05T11:17:12.618Z,42.08
2019-03-05T11:18:12.530Z,42.11
2019-03-05T11:19:12.470Z,42.09
2019-03-05T11:20:12.629Z,42.06
2019-03-05T11:21:12.459Z,42.05
2019-03-05T11:22:12.498Z,42.05
2019-03-05T11:23:12.728Z,42.06
2019-03-05T11:24:12.488Z,41.96
2019-03-05T11:25:12.563Z,41.95
2019-03-05T11:26:12.549Z,41.95
2019-03-05T11:27:12.648Z,42.07
2019-03-05T11:28:12.551Z,42.15
2019-03-05T11:29:12.691Z,42.17
2019-03-05T11:30:12.667Z,41.93
2019-03-05T11:31:12.601Z,42
2019-03-05T11:32:12.427Z,42.13
2019-03-05T11:33:12.479Z,41.93
2019-03-05T11:34:13.619Z,41.92
2019-03-05T11:35:12.347Z,41.94
2019-03-05T11:36:12.537Z,41.94
2019-03-05T11:37:12.579Z,41.89
2019-03-05T11:38:12.424Z,42.14
2019-03-05T11:39:13.330Z,42.08
2019-03-05T11:40:21.596Z,42.14
2019-03-05T11:41:12.315Z,42.19
2019-03-05T11:42:12.596Z,42.25
2019-03-05T11:43:13.169Z,42.3
2019-03-05T11:44:12.351Z,42.38
2019-03-05T11:45:12.542Z,42.41
2019-03-05T11:46:12.557Z,42.34
2019-03-05T11:47:12.500Z,42.32
2019-03-05T11:48:12.582Z,42.29
2019-03-05T11:49:12.800Z,42.29
2019-03-05T11:50:12.480Z,42.33
2019-03-05T11:51:12.557Z,42.24
2019-03-05T11:52:12.521Z,42.28
2019-03-05T11:53:12.437Z,42.32
2019-03-05T11:54:12.491Z,42.39
2019-03-05T11:55:12.789Z,42.3
2019-03-05T11:56:12.415Z,42.31
2019-03-05T11:57:12.636Z,42.3
2019-03-05T11:58:12.556Z,42.32
2019-03-05T11:59:12.525Z,42.42
2019-03-05T12:00:12.606Z,41.96
2019-03-05T12:01:12.617Z,42.23
2019-03-05T12:02:22.411Z,42.51
2019-03-05T12:03:12.455Z,42.33
2019-03-05T12:04:12.399Z,43.19
2019-03-05T12:05:12.605Z,43.08
2019-03-05T12:06:12.566Z,42.33
2019-03-05T12:07:12.611Z,42.89
2019-03-05T12:08:12.601Z,42.31
2019-03-05T12:09:33.226Z,42.14
2019-03-05T12:10:12.618Z,42.2
2019-03-05T12:11:12.487Z,42.62
2019-03-05T12:12:12.549Z,41.97
2019-03-05T12:13:15.005Z,41.93
2019-03-05T12:14:12.589Z,41.84
2019-03-05T12:15:12.549Z,41.83
2019-03-05T12:16:12.491Z,41.83
2019-03-05T12:17:12.487Z,41.92
2019-03-05T12:18:12.566Z,41.84
2019-03-05T12:19:12.392Z,41.87
2019-03-05T12:20:12.482Z,41.84
2019-03-05T12:21:12.562Z,41.81
2019-03-05T12:22:12.324Z,41.77
2019-03-05T12:23:12.539Z,41.87
2019-03-05T12:24:12.654Z,41.77
2019-03-05T12:25:12.402Z,41.79
2019-03-05T12:26:12.576Z,41.89
2019-03-05T12:27:12.800Z,42.04
2019-03-05T12:28:12.365Z,42.19
2019-03-05T12:29:12.447Z,42.32
2019-03-05T12:30:12.499Z,42.29
2019-03-05T12:31:12.406Z,42.23
2019-03-05T12:32:15.649Z,42.26
2019-03-05T12:33:12.560Z,42.19
2019-03-05T12:34:12.493Z,42.22
2019-03-05T12:35:12.570Z,42.26
2019-03-05T12:36:12.353Z,42.15
2019-03-05T12:37:12.372Z,42.2
2019-03-05T12:38:12.565Z,42.12
2019-03-05T12:39:12.443Z,42.13
2019-03-05T12:40:12.434Z,42.13
2019-03-05T12:41:12.775Z,42.1
2019-03-05T12:42:12.359Z,42.09
2019-03-05T12:43:12.386Z,42.09
2019-03-05T12:44:12.533Z,42.11
2019-03-05T12:45:12.400Z,42.07
2019-03-05T12:46:12.558Z,42.09
2019-03-05T12:47:12.521Z,42.08
2019-03-05T12:48:12.604Z,42.04
2019-03-05T12:49:12.407Z,41.97
2019-03-05T12:50:12.519Z,42.04
2019-03-05T12:51:12.401Z,42.02
2019-03-05T12:52:12.444Z,41.95
2019-03-05T12:53:12.651Z,42.23
2019-03-05T12:54:12.479Z,42.69